createdAt,value
2022-07-25T00:00:25.983Z,14.60
2022-07-25T00:02:52.501Z,14.73
2022-07-25T00:05:20.208Z,14.23
2022-07-25T00:07:48.698Z,14.43
2022-07-25T00:10:15.585Z,14.80
2022-07-25T00:12:42.329Z,13.47
2022-07-25T00:15:09.498Z,13.20
2022-07-25T00:17:36.456Z,15.00
2022-07-25T00:20:03.636Z,13.90
2022-07-25T00:22:30.148Z,15.40
2022-07-25T00:24:56.860Z,15.73
2022-07-25T00:27:23.449Z,13.97
2022-07-25T00:29:50.073Z,14.73
2022-07-25T00:32:16.658Z,13.97
2022-07-25T00:34:43.228Z,12.90
2022-07-25T00:37:09.709Z,13.00
2022-07-25T00:39:36.594Z,14.00
2022-07-25T00:42:03.307Z,12.40
2022-07-25T00:44:32.057Z,11.10
2022-07-25T00:46:59.294Z,13.77
2022-07-25T00:49:26.275Z,13.43
2022-07-25T00:51:53.830Z,14.33
2022-07-25T00:54:20.882Z,13.60
2022-07-25T00:56:48.832Z,13.70
2022-07-25T00:59:16.620Z,13.13
2022-07-25T01:01:45.612Z,13.43
2022-07-25T01:04:12.195Z,11.90
2022-07-25T01:06:38.730Z,12.47
2022-07-25T01:09:05.342Z,13.27
2022-07-25T01:11:31.984Z,13.30
2022-07-25T01:13:58.650Z,12.60
2022-07-25T01:16:25.363Z,13.40
2022-07-25T01:18:52.082Z,14.33
2022-07-25T01:21:18.695Z,12.90
2022-07-25T01:23:45.426Z,13.10
2022-07-25T01:26:11.964Z,11.80
2022-07-25T01:28:38.524Z,13.00
2022-07-25T01:31:05.133Z,14.23
2022-07-25T01:33:31.794Z,13.10
2022-07-25T01:35:58.344Z,13.67
2022-07-25T01:38:25.104Z,14.67
2022-07-25T01:40:51.751Z,14.23
2022-07-25T01:43:18.322Z,13.53
2022-07-25T01:45:44.809Z,14.90
2022-07-25T01:48:11.455Z,15.23
2022-07-25T01:50:38.229Z,14.33
2022-07-25T01:53:05.114Z,13.20
2022-07-25T01:55:31.671Z,13.57
2022-07-25T01:57:59.015Z,13.43
2022-07-25T02:00:26.248Z,13.50
2022-07-25T02:03:12.712Z,14.77
2022-07-25T02:05:39.284Z,11.90
2022-07-25T02:08:05.817Z,13.60
2022-07-25T02:10:32.530Z,11.67
2022-07-25T02:13:00.204Z,12.80
2022-07-25T02:15:26.724Z,12.17
2022-07-25T02:17:53.423Z,14.33
2022-07-25T02:20:20.039Z,13.53
2022-07-25T02:22:46.496Z,13.50
2022-07-25T02:25:13.064Z,13.73
2022-07-25T02:27:39.550Z,13.30
2022-07-25T02:30:06.744Z,14.70
2022-07-25T02:32:33.246Z,13.97
2022-07-25T02:34:59.740Z,13.93
2022-07-25T02:37:26.452Z,14.33
2022-07-25T02:39:52.994Z,12.50
2022-07-25T02:42:19.564Z,13.83
2022-07-25T02:44:46.108Z,13.70
2022-07-25T02:47:12.705Z,13.30
2022-07-25T02:49:39.228Z,13.13
2022-07-25T02:52:05.770Z,11.93
2022-07-25T02:54:32.237Z,14.07
2022-07-25T02:56:58.770Z,13.77
2022-07-25T02:59:25.346Z,13.30
2022-07-25T03:01:58.799Z,13.53
2022-07-25T03:04:25.555Z,13.43
2022-07-25T03:06:52.178Z,13.40
2022-07-25T03:09:19.187Z,13.50
2022-07-25T03:11:45.728Z,13.10
2022-07-25T03:14:12.208Z,13.73
2022-07-25T03:16:38.822Z,13.00
2022-07-25T03:19:10.170Z,14.40
2022-07-25T03:21:37.866Z,13.70
2022-07-25T03:24:04.675Z,14.57
2022-07-25T03:26:31.548Z,14.17
2022-07-25T03:28:58.062Z,13.33
2022-07-25T03:31:24.565Z,14.00
2022-07-25T03:33:51.086Z,14.83
2022-07-25T03:36:17.676Z,13.80
2022-07-25T03:38:44.184Z,12.70
2022-07-25T03:41:10.876Z,12.70
2022-07-25T03:43:37.698Z,14.30
2022-07-25T03:46:04.441Z,13.90
2022-07-25T03:48:30.975Z,14.33
2022-07-25T03:50:57.898Z,14.20
2022-07-25T03:53:24.407Z,14.67
2022-07-25T03:55:51.187Z,14.60
2022-07-25T03:58:17.704Z,14.37
2022-07-25T04:00:44.280Z,14.03
2022-07-25T04:03:10.877Z,14.00
2022-07-25T04:05:37.399Z,14.20
2022-07-25T04:08:04.093Z,13.30
2022-07-25T04:10:31.281Z,13.80
2022-07-25T04:12:57.783Z,13.57
2022-07-25T04:15:24.326Z,14.63
2022-07-25T04:17:50.871Z,13.77
2022-07-25T04:20:18.589Z,14.00
2022-07-25T04:22:47.172Z,14.43
2022-07-25T04:25:14.197Z,13.50
2022-07-25T04:27:40.818Z,13.70
2022-07-25T04:30:08.065Z,14.13
2022-07-25T04:32:34.562Z,14.00
2022-07-25T04:35:01.322Z,12.90
2022-07-25T04:37:27.872Z,14.17
2022-07-25T04:39:54.372Z,13.50
2022-07-25T04:42:20.892Z,13.80
2022-07-25T04:44:47.391Z,13.93
2022-07-25T04:47:13.925Z,14.30
2022-07-25T04:49:40.593Z,12.93
2022-07-25T04:52:07.106Z,13.60
2022-07-25T04:54:33.643Z,14.07
2022-07-25T04:57:00.377Z,13.50
2022-07-25T04:59:26.881Z,13.93
2022-07-25T05:01:53.412Z,14.13
2022-07-25T05:04:20.028Z,13.83
2022-07-25T05:06:46.587Z,13.60
2022-07-25T05:09:13.116Z,14.20
2022-07-25T05:11:43.679Z,14.07
2022-07-25T05:14:13.593Z,13.83
2022-07-25T05:16:40.199Z,13.27
2022-07-25T05:19:07.668Z,13.67
2022-07-25T05:21:34.152Z,13.63
2022-07-25T05:24:00.712Z,14.10
2022-07-25T05:26:27.200Z,14.10
2022-07-25T05:28:54.315Z,14.17
2022-07-25T05:31:20.892Z,13.20
2022-07-25T05:33:47.490Z,15.07
2022-07-25T05:36:14.551Z,13.63
2022-07-25T05:38:41.168Z,13.93
2022-07-25T05:41:07.932Z,12.53
2022-07-25T05:43:34.444Z,14.10
2022-07-25T05:46:05.092Z,14.20
2022-07-25T05:48:32.520Z,14.30
2022-07-25T05:50:59.478Z,13.10
2022-07-25T05:53:26.193Z,15.13
2022-07-25T05:55:52.757Z,13.50
2022-07-25T05:58:19.369Z,14.57
2022-07-25T06:00:45.869Z,13.20
2022-07-25T06:03:12.512Z,13.97
2022-07-25T06:05:39.362Z,14.57
2022-07-25T06:08:06.162Z,13.57
2022-07-25T06:10:32.713Z,13.67
2022-07-25T06:12:59.357Z,14.50
2022-07-25T06:15:27.155Z,13.40
2022-07-25T06:17:54.980Z,13.70
2022-07-25T06:20:21.557Z,13.43
2022-07-25T06:22:48.497Z,12.83
2022-07-25T06:25:15.240Z,14.13
2022-07-25T06:27:41.899Z,13.70
2022-07-25T06:30:19.142Z,14.37
2022-07-25T06:32:50.014Z,14.07
2022-07-25T06:35:17.362Z,14.00
2022-07-25T06:37:43.984Z,13.87
2022-07-25T06:40:10.686Z,13.37
2022-07-25T06:42:42.499Z,14.37
2022-07-25T06:45:10.075Z,13.93
2022-07-25T06:47:37.493Z,14.90
2022-07-25T06:50:09.132Z,13.50
2022-07-25T06:52:38.766Z,14.03
2022-07-25T06:55:06.674Z,14.63
2022-07-25T06:57:33.303Z,13.27
2022-07-25T06:59:59.933Z,12.67
2022-07-25T07:02:26.614Z,13.27
2022-07-25T07:04:53.091Z,13.37
2022-07-25T07:07:19.644Z,12.87
2022-07-25T07:09:46.164Z,12.97
2022-07-25T07:12:12.800Z,13.10
2022-07-25T07:14:39.361Z,13.00
2022-07-25T07:17:06.002Z,13.73
2022-07-25T07:19:32.693Z,14.50
2022-07-25T07:21:59.581Z,13.83
2022-07-25T07:24:26.045Z,13.67
2022-07-25T07:26:53.884Z,13.43
2022-07-25T07:29:20.652Z,14.57
2022-07-25T07:31:47.355Z,13.30
2022-07-25T07:34:16.627Z,13.17
2022-07-25T07:36:43.555Z,13.33
2022-07-25T07:39:10.061Z,12.60
2022-07-25T07:41:36.588Z,13.60
2022-07-25T07:44:03.333Z,13.37
2022-07-25T07:46:30.030Z,12.97
2022-07-25T07:48:56.739Z,12.57
2022-07-25T07:51:23.416Z,13.70
2022-07-25T07:54:08.359Z,12.30
2022-07-25T07:56:34.881Z,13.87
2022-07-25T07:59:01.504Z,14.03
2022-07-25T08:01:28.112Z,12.93
2022-07-25T08:03:54.664Z,14.00
2022-07-25T08:06:21.343Z,13.33
2022-07-25T08:08:47.876Z,13.80
2022-07-25T08:11:14.427Z,13.17
2022-07-25T08:13:40.919Z,13.67
2022-07-25T08:16:07.873Z,15.83
2022-07-25T08:18:34.709Z,13.30
2022-07-25T08:21:06.369Z,12.70
2022-07-25T08:23:38.978Z,14.30
2022-07-25T08:26:06.285Z,13.50
2022-07-25T08:28:32.784Z,13.00
2022-07-25T08:30:59.476Z,13.53
2022-07-25T08:33:26.548Z,13.13
2022-07-25T08:35:54.720Z,12.00
2022-07-25T08:38:22.924Z,12.57
2022-07-25T08:40:50.056Z,12.43
2022-07-25T08:43:17.909Z,12.43
2022-07-25T08:45:46.861Z,11.70
2022-07-25T08:48:13.700Z,12.50
2022-07-25T08:50:40.428Z,12.90
2022-07-25T08:53:31.541Z,12.20
2022-07-25T08:55:53.455Z,12.17
2022-07-25T08:58:20.028Z,12.93
2022-07-25T09:00:46.959Z,12.40
2022-07-25T09:03:13.977Z,11.70
2022-07-25T09:05:40.839Z,12.13
2022-07-25T09:08:11.433Z,13.07
2022-07-25T09:10:39.298Z,14.10
2022-07-25T09:13:08.448Z,11.30
2022-07-25T09:15:37.975Z,11.70
2022-07-25T09:18:15.903Z,12.73
2022-07-25T09:20:50.285Z,11.73
2022-07-25T09:23:30.305Z,11.70
2022-07-25T09:26:08.578Z,11.67
2022-07-25T09:28:42.627Z,12.47
2022-07-25T09:31:09.900Z,11.73
2022-07-25T09:33:59.474Z,11.20
2022-07-25T09:36:26.061Z,11.77
2022-07-25T09:38:58.152Z,12.33
2022-07-25T09:41:40.942Z,12.03
2022-07-25T09:44:22.998Z,11.93
2022-07-25T09:46:50.190Z,11.57
2022-07-25T09:49:16.883Z,10.73
2022-07-25T09:51:43.651Z,12.40
2022-07-25T09:54:10.435Z,11.53
2022-07-25T09:56:37.161Z,12.20
2022-07-25T09:59:04.362Z,11.67
2022-07-25T10:01:50.295Z,11.40
2022-07-25T10:04:22.561Z,10.73
2022-07-25T10:07:06.849Z,10.63
2022-07-25T10:09:33.883Z,10.77
2022-07-25T10:12:05.956Z,11.10
2022-07-25T10:14:33.864Z,10.97
2022-07-25T10:17:01.816Z,11.53
2022-07-25T10:19:52.918Z,11.70
2022-07-25T10:22:39.693Z,11.27
2022-07-25T10:25:15.822Z,11.47
2022-07-25T10:27:44.708Z,10.50
2022-07-25T10:30:23.435Z,11.13
2022-07-25T10:32:51.769Z,11.13
2022-07-25T10:35:18.412Z,12.20
2022-07-25T10:37:49.142Z,10.33
2022-07-25T10:40:26.696Z,10.63
2022-07-25T10:43:09.911Z,11.27
2022-07-25T10:45:40.990Z,11.17
2022-07-25T10:48:12.313Z,11.30
2022-07-25T10:51:02.643Z,12.00
2022-07-25T10:53:36.727Z,11.30
2022-07-25T10:56:15.155Z,11.67
2022-07-25T10:59:00.521Z,12.00
2022-07-25T11:01:35.695Z,11.67
2022-07-25T11:04:13.171Z,12.20
2022-07-25T11:06:42.051Z,11.80
2022-07-25T11:09:26.861Z,10.97
2022-07-25T11:11:58.705Z,12.03
2022-07-25T11:14:31.245Z,11.80
2022-07-25T11:16:58.060Z,12.00
2022-07-25T11:19:27.724Z,12.07
2022-07-25T11:21:56.364Z,11.77
2022-07-25T11:24:40.452Z,11.00
2022-07-25T11:27:12.759Z,11.63
2022-07-25T11:29:40.034Z,10.73
2022-07-25T11:32:08.906Z,10.83
2022-07-25T11:34:37.604Z,10.87
2022-07-25T11:37:07.924Z,11.40
2022-07-25T11:39:36.723Z,10.80
2022-07-25T11:42:04.338Z,10.87
2022-07-25T11:44:48.035Z,10.70
2022-07-25T11:47:26.107Z,11.93
2022-07-25T11:49:54.286Z,11.50
2022-07-25T11:52:33.411Z,10.30
2022-07-25T11:55:02.525Z,10.83
2022-07-25T11:57:32.519Z,10.73
2022-07-25T12:00:00.434Z,10.10
2022-07-25T12:02:31.185Z,11.03
2022-07-25T12:05:00.051Z,10.60
2022-07-25T12:07:49.718Z,10.60
2022-07-25T12:10:38.090Z,12.10
2022-07-25T12:13:06.245Z,10.60
2022-07-25T12:15:44.349Z,10.70
2022-07-25T12:18:12.453Z,10.53
2022-07-25T12:20:41.195Z,11.63
2022-07-25T12:23:09.681Z,11.27
2022-07-25T12:25:44.443Z,11.00
2022-07-25T12:28:11.852Z,11.63
2022-07-25T12:30:39.932Z,11.37
2022-07-25T12:33:06.653Z,10.13
2022-07-25T12:35:33.962Z,11.20
2022-07-25T12:38:00.983Z,10.20
2022-07-25T12:40:27.492Z,10.57
2022-07-25T12:42:54.089Z,11.30
2022-07-25T12:45:20.883Z,10.43
2022-07-25T12:47:48.309Z,10.70
2022-07-25T12:50:16.044Z,10.63
2022-07-25T12:52:42.963Z,10.77
2022-07-25T12:55:11.777Z,10.30
2022-07-25T12:57:38.608Z,9.63
2022-07-25T13:00:08.058Z,10.90
2022-07-25T13:02:34.708Z,9.90
2022-07-25T13:05:01.646Z,10.50
2022-07-25T13:07:28.369Z,10.07
2022-07-25T13:09:54.908Z,9.77
2022-07-25T13:12:22.947Z,10.23
2022-07-25T13:14:49.790Z,9.97
2022-07-25T13:17:16.420Z,10.53
2022-07-25T13:19:43.082Z,9.80
2022-07-25T13:22:09.975Z,10.20
2022-07-25T13:24:36.603Z,10.00
2022-07-25T13:27:06.821Z,10.23
2022-07-25T13:29:34.112Z,9.87
2022-07-25T13:32:01.238Z,9.63
2022-07-25T13:34:28.570Z,9.63
2022-07-25T13:36:55.654Z,8.93
2022-07-25T13:39:22.565Z,9.87
2022-07-25T13:41:49.725Z,10.07
2022-07-25T13:44:16.337Z,10.07
2022-07-25T13:46:46.098Z,9.73
2022-07-25T13:49:12.970Z,9.33
2022-07-25T13:51:39.553Z,9.70
2022-07-25T13:54:06.211Z,9.33
2022-07-25T13:56:33.198Z,9.50
2022-07-25T13:58:59.997Z,9.90
2022-07-25T14:01:28.731Z,9.10
2022-07-25T14:03:55.466Z,9.23
2022-07-25T14:06:22.519Z,9.73
2022-07-25T14:08:49.416Z,8.77
2022-07-25T14:11:16.072Z,9.10
2022-07-25T14:13:43.645Z,8.50
2022-07-25T14:16:10.348Z,8.47
2022-07-25T14:18:37.141Z,9.10
2022-07-25T14:21:03.830Z,8.17
2022-07-25T14:23:30.459Z,8.20
2022-07-25T14:25:58.828Z,7.97
2022-07-25T14:28:26.132Z,8.00
2022-07-25T14:30:52.756Z,8.73
2022-07-25T14:33:19.270Z,8.67
2022-07-25T14:35:45.881Z,9.03
2022-07-25T14:38:12.373Z,8.07
2022-07-25T14:40:41.504Z,7.67
2022-07-25T14:43:08.616Z,7.93
2022-07-25T14:45:37.136Z,7.80
2022-07-25T14:48:06.033Z,8.20
2022-07-25T14:50:32.759Z,7.77
2022-07-25T14:52:59.288Z,7.00
2022-07-25T14:55:26.017Z,7.40
2022-07-25T14:57:52.593Z,7.90
2022-07-25T15:00:19.312Z,7.60
2022-07-25T15:02:45.912Z,7.10
2022-07-25T15:05:12.452Z,7.30
2022-07-25T15:07:39.101Z,6.57
2022-07-25T15:10:06.357Z,7.03
2022-07-25T15:12:32.920Z,6.68
2022-07-25T15:14:59.428Z,6.57
2022-07-25T15:17:25.892Z,5.90
2022-07-25T15:19:52.471Z,6.85
2022-07-25T15:22:18.956Z,6.78
2022-07-25T15:25:17.238Z,7.20
2022-07-25T15:27:32.204Z,6.65
2022-07-25T15:29:58.764Z,6.32
2022-07-25T15:32:25.271Z,6.55
2022-07-25T15:34:51.846Z,5.78
2022-07-25T15:37:18.352Z,6.03
2022-07-25T15:39:45.790Z,5.80
2022-07-25T15:42:13.197Z,5.70
2022-07-25T15:44:40.257Z,6.72
2022-07-25T15:47:06.912Z,5.72
2022-07-25T15:49:33.649Z,5.65
2022-07-25T15:52:00.313Z,5.80
2022-07-25T15:54:29.526Z,6.40
2022-07-25T15:56:56.351Z,6.40
2022-07-25T15:59:23.437Z,5.40
2022-07-25T16:01:49.930Z,6.13
2022-07-25T16:04:16.561Z,5.72
2022-07-25T16:06:43.252Z,5.68
2022-07-25T16:09:12.434Z,5.65
2022-07-25T16:11:39.282Z,5.45
2022-07-25T16:14:05.900Z,5.75
2022-07-25T16:16:32.826Z,5.70
2022-07-25T16:18:59.481Z,7.32
2022-07-25T16:21:26.309Z,7.10
2022-07-25T16:23:52.904Z,6.60
2022-07-25T16:26:19.371Z,6.90
2022-07-25T16:28:47.512Z,6.43
2022-07-25T16:31:14.273Z,6.13
2022-07-25T16:33:41.038Z,6.20
2022-07-25T16:36:08.062Z,5.97
2022-07-25T16:38:34.883Z,6.80
2022-07-25T16:41:01.414Z,6.00
2022-07-25T16:43:28.003Z,6.90
2022-07-25T16:45:54.845Z,6.33
2022-07-25T16:48:21.807Z,6.40
2022-07-25T16:50:48.423Z,6.87
2022-07-25T16:53:14.988Z,6.80
2022-07-25T16:55:41.533Z,6.70
2022-07-25T16:58:08.148Z,7.47
2022-07-25T17:00:34.671Z,7.00
2022-07-25T17:03:01.215Z,7.10
2022-07-25T17:05:27.805Z,7.20
2022-07-25T17:07:59.422Z,6.77
2022-07-25T17:10:27.761Z,6.50
2022-07-25T17:12:54.593Z,7.50
2022-07-25T17:15:21.192Z,7.07
2022-07-25T17:17:47.714Z,6.83
2022-07-25T17:20:14.858Z,7.60
2022-07-25T17:22:41.438Z,7.20
2022-07-25T17:25:08.385Z,7.00
2022-07-25T17:27:35.337Z,8.10
2022-07-25T17:30:02.261Z,9.00
2022-07-25T17:32:30.197Z,7.70
2022-07-25T17:34:58.245Z,8.00
2022-07-25T17:37:26.526Z,7.37
2022-07-25T17:39:53.803Z,9.30
2022-07-25T17:42:23.958Z,7.63
2022-07-25T17:44:52.095Z,8.50
2022-07-25T17:47:19.172Z,9.07
2022-07-25T17:49:46.261Z,9.67
2022-07-25T17:52:13.040Z,9.40
2022-07-25T17:54:40.312Z,8.27
2022-07-25T17:57:07.145Z,7.63
2022-07-25T17:59:34.400Z,8.40
2022-07-25T18:02:02.298Z,9.13
2022-07-25T18:04:28.906Z,10.07
2022-07-25T18:06:55.625Z,10.20
2022-07-25T18:09:22.922Z,9.00
2022-07-25T18:11:49.812Z,8.93
2022-07-25T18:14:16.472Z,8.87
2022-07-25T18:16:44.749Z,7.87
2022-07-25T18:19:11.717Z,7.97
2022-07-25T18:21:38.291Z,7.67
2022-07-25T18:24:05.749Z,9.50
2022-07-25T18:26:33.724Z,9.90
2022-07-25T18:29:00.475Z,9.43
2022-07-25T18:31:27.074Z,8.80
2022-07-25T18:33:53.701Z,9.77
2022-07-25T18:36:20.309Z,9.30
2022-07-25T18:38:48.637Z,9.27
2022-07-25T18:41:30.866Z,9.63
2022-07-25T18:43:57.633Z,10.87
2022-07-25T18:46:24.490Z,8.83
2022-07-25T18:48:51.316Z,9.00
2022-07-25T18:51:18.036Z,9.20
2022-07-25T18:53:48.288Z,8.80
2022-07-25T18:56:16.477Z,8.40
2022-07-25T18:58:43.225Z,9.00
2022-07-25T19:01:10.347Z,10.13
2022-07-25T19:03:37.747Z,9.70
2022-07-25T19:06:05.132Z,10.73
2022-07-25T19:08:32.674Z,10.83
2022-07-25T19:10:59.270Z,9.37
2022-07-25T19:13:48.815Z,8.97
2022-07-25T19:16:12.689Z,10.17
2022-07-25T19:18:39.876Z,9.73
2022-07-25T19:21:06.951Z,10.93
2022-07-25T19:23:33.577Z,9.90
2022-07-25T19:26:01.323Z,8.70
2022-07-25T19:28:29.057Z,9.87
2022-07-25T19:30:56.718Z,9.23
2022-07-25T19:33:24.401Z,8.50
2022-07-25T19:35:51.233Z,9.57
2022-07-25T19:38:19.579Z,8.90
2022-07-25T19:40:46.280Z,8.67
2022-07-25T19:43:13.061Z,9.40
2022-07-25T19:45:39.598Z,9.53
2022-07-25T19:48:07.036Z,8.93
2022-07-25T19:50:33.646Z,10.27
2022-07-25T19:53:01.362Z,10.37
2022-07-25T19:55:28.152Z,10.30
2022-07-25T19:57:54.726Z,9.13
2022-07-25T20:00:21.581Z,10.50
2022-07-25T20:02:48.173Z,10.00
2022-07-25T20:05:14.983Z,9.10
2022-07-25T20:07:41.484Z,8.97
2022-07-25T20:10:08.445Z,9.57
2022-07-25T20:12:34.984Z,8.73
2022-07-25T20:15:01.788Z,10.23
2022-07-25T20:17:28.319Z,10.40
2022-07-25T20:19:54.915Z,11.70
2022-07-25T20:22:21.477Z,10.70
2022-07-25T20:24:48.041Z,11.50
2022-07-25T20:27:14.580Z,9.70
2022-07-25T20:29:41.137Z,10.73
2022-07-25T20:32:07.669Z,11.00
2022-07-25T20:34:34.337Z,11.63
2022-07-25T20:37:00.931Z,10.50
2022-07-25T20:39:28.714Z,10.87
2022-07-25T20:41:55.472Z,10.20
2022-07-25T20:44:22.035Z,11.70
2022-07-25T20:46:48.502Z,12.03
2022-07-25T20:49:15.224Z,9.97
2022-07-25T20:51:41.963Z,11.17
2022-07-25T20:54:09.333Z,10.30
2022-07-25T20:56:35.888Z,11.03
2022-07-25T20:59:02.403Z,9.90
2022-07-25T21:01:28.963Z,10.83
2022-07-25T21:03:55.577Z,10.90
2022-07-25T21:06:27.269Z,10.87
2022-07-25T21:08:54.142Z,11.00
2022-07-25T21:11:21.040Z,10.60
2022-07-25T21:13:47.699Z,10.43
2022-07-25T21:16:14.460Z,12.17
2022-07-25T21:18:41.070Z,11.67
2022-07-25T21:21:11.972Z,10.90
2022-07-25T21:23:38.922Z,11.80
2022-07-25T21:26:06.020Z,10.43
2022-07-25T21:28:33.681Z,10.63
2022-07-25T21:31:00.302Z,10.63
2022-07-25T21:33:26.846Z,11.70
2022-07-25T21:35:53.946Z,10.90
2022-07-25T21:38:26.653Z,10.20
2022-07-25T21:40:55.848Z,11.17
2022-07-25T21:43:22.506Z,11.27
2022-07-25T21:45:49.063Z,10.40
2022-07-25T21:48:15.636Z,9.80
2022-07-25T21:50:48.381Z,9.53
2022-07-25T21:53:16.135Z,8.80
2022-07-25T21:55:42.664Z,10.97
2022-07-25T21:58:09.300Z,10.73
2022-07-25T22:00:41.470Z,11.20
2022-07-25T22:03:11.705Z,7.80
2022-07-25T22:05:38.311Z,8.93
2022-07-25T22:08:05.243Z,8.77
2022-07-25T22:10:31.941Z,8.30
2022-07-25T22:12:58.459Z,7.70
2022-07-25T22:15:24.971Z,7.50
2022-07-25T22:17:51.674Z,6.90
2022-07-25T22:20:19.494Z,8.53
2022-07-25T22:22:49.614Z,7.30
2022-07-25T22:25:16.843Z,5.80
2022-07-25T22:27:43.546Z,6.30
2022-07-25T22:30:14.830Z,6.80
2022-07-25T22:32:44.771Z,8.47
2022-07-25T22:35:12.672Z,7.20
2022-07-25T22:37:39.230Z,6.20
2022-07-25T22:40:06.317Z,6.60
2022-07-25T22:42:32.857Z,8.90
2022-07-25T22:44:59.546Z,8.73
2022-07-25T22:47:26.134Z,8.10
2022-07-25T22:49:52.623Z,6.13
2022-07-25T22:52:19.339Z,6.60
2022-07-25T22:54:45.884Z,7.50
2022-07-25T22:57:12.420Z,6.30
2022-07-25T22:59:38.987Z,6.53
2022-07-25T23:02:05.725Z,6.07
2022-07-25T23:04:32.344Z,6.93
2022-07-25T23:06:58.956Z,6.67
2022-07-25T23:09:25.693Z,6.73
2022-07-25T23:12:04.231Z,6.23
2022-07-25T23:14:30.923Z,6.40
2022-07-25T23:17:15.975Z,6.10
2022-07-25T23:19:43.133Z,5.77
2022-07-25T23:22:09.809Z,5.97
2022-07-25T23:24:38.042Z,5.63
2022-07-25T23:27:04.910Z,6.70
2022-07-25T23:29:31.505Z,6.20
2022-07-25T23:31:57.992Z,5.30
2022-07-25T23:34:24.588Z,6.97
2022-07-25T23:36:51.144Z,7.00
2022-07-25T23:39:17.683Z,7.37
2022-07-25T23:41:44.284Z,6.50
2022-07-25T23:44:11.134Z,8.93
2022-07-25T23:46:38.763Z,6.93
2022-07-25T23:49:06.432Z,5.97
2022-07-25T23:51:33.435Z,6.73
2022-07-25T23:54:00.050Z,6.00
2022-07-25T23:56:26.709Z,6.40
2022-07-25T23:58:53.855Z,6.10
